sensor_id;sensor_type;location;lat;lon;timestamp;P1;durP1;ratioP1;P2;durP2;ratioP2
25207;SDS011;13153;52.316;21.166;2023-04-06T00:01:39;30.42;;;10.80;;
25207;SDS011;13153;52.316;21.166;2023-04-06T00:04:05;24.80;;;10.32;;
25207;SDS011;13153;52.316;21.166;2023-04-06T00:06:32;21.85;;;9.63;;
25207;SDS011;13153;52.316;21.166;2023-04-06T00:08:58;29.65;;;9.95;;
25207;SDS011;13153;52.316;21.166;2023-04-06T00:11:25;28.10;;;10.85;;
25207;SDS011;13153;52.316;21.166;2023-04-06T00:13:52;24.85;;;9.77;;
25207;SDS011;13153;52.316;21.166;2023-04-06T00:16:17;18.90;;;8.90;;
25207;SDS011;13153;52.316;21.166;2023-04-06T00:18:44;22.52;;;9.65;;
25207;SDS011;13153;52.316;21.166;2023-04-06T00:21:11;18.00;;;8.82;;
25207;SDS011;13153;52.316;21.166;2023-04-06T00:23:38;18.63;;;7.97;;
25207;SDS011;13153;52.316;21.166;2023-04-06T00:26:04;18.95;;;8.60;;
25207;SDS011;13153;52.316;21.166;2023-04-06T00:28:30;15.48;;;7.68;;
25207;SDS011;13153;52.316;21.166;2023-04-06T00:30:56;20.20;;;8.73;;
25207;SDS011;13153;52.316;21.166;2023-04-06T00:33:22;18.52;;;8.30;;
25207;SDS011;13153;52.316;21.166;2023-04-06T00:35:48;16.23;;;8.02;;
25207;SDS011;13153;52.316;21.166;2023-04-06T00:38:14;22.85;;;9.05;;
25207;SDS011;13153;52.316;21.166;2023-04-06T00:40:41;14.27;;;7.72;;
25207;SDS011;13153;52.316;21.166;2023-04-06T00:43:09;20.25;;;9.20;;
25207;SDS011;13153;52.316;21.166;2023-04-06T00:45:37;26.08;;;9.00;;
25207;SDS011;13153;52.316;21.166;2023-04-06T00:48:05;31.00;;;9.20;;
25207;SDS011;13153;52.316;21.166;2023-04-06T00:50:32;24.25;;;8.80;;
25207;SDS011;13153;52.316;21.166;2023-04-06T00:52:58;25.40;;;8.70;;
25207;SDS011;13153;52.316;21.166;2023-04-06T00:55:26;19.20;;;9.05;;
25207;SDS011;13153;52.316;21.166;2023-04-06T00:57:52;28.02;;;10.18;;
25207;SDS011;13153;52.316;21.166;2023-04-06T01:00:20;24.90;;;9.38;;
25207;SDS011;13153;52.316;21.166;2023-04-06T01:02:46;24.67;;;8.88;;
25207;SDS011;13153;52.316;21.166;2023-04-06T01:05:13;21.17;;;8.93;;
25207;SDS011;13153;52.316;21.166;2023-04-06T01:07:39;19.70;;;8.70;;
25207;SDS011;13153;52.316;21.166;2023-04-06T01:10:05;19.92;;;7.95;;
25207;SDS011;13153;52.316;21.166;2023-04-06T01:12:31;17.63;;;8.30;;
25207;SDS011;13153;52.316;21.166;2023-04-06T01:14:57;13.55;;;7.07;;
25207;SDS011;13153;52.316;21.166;2023-04-06T01:17:23;14.40;;;7.13;;
25207;SDS011;13153;52.316;21.166;2023-04-06T01:19:49;14.57;;;7.43;;
25207;SDS011;13153;52.316;21.166;2023-04-06T01:22:16;16.50;;;7.85;;
25207;SDS011;13153;52.316;21.166;2023-04-06T01:24:43;15.95;;;6.93;;
25207;SDS011;13153;52.316;21.166;2023-04-06T01:27:09;15.73;;;7.88;;
25207;SDS011;13153;52.316;21.166;2023-04-06T01:29:35;15.55;;;7.00;;
25207;SDS011;13153;52.316;21.166;2023-04-06T01:32:02;14.02;;;7.57;;
25207;SDS011;13153;52.316;21.166;2023-04-06T01:34:28;13.98;;;7.13;;
25207;SDS011;13153;52.316;21.166;2023-04-06T01:36:54;14.15;;;7.40;;
25207;SDS011;13153;52.316;21.166;2023-04-06T01:39:20;17.58;;;7.47;;
25207;SDS011;13153;52.316;21.166;2023-04-06T01:41:46;15.50;;;7.20;;
25207;SDS011;13153;52.316;21.166;2023-04-06T01:44:17;19.23;;;7.72;;
25207;SDS011;13153;52.316;21.166;2023-04-06T01:46:44;21.42;;;8.45;;
25207;SDS011;13153;52.316;21.166;2023-04-06T01:49:10;17.55;;;7.70;;
25207;SDS011;13153;52.316;21.166;2023-04-06T01:51:37;18.25;;;7.95;;
25207;SDS011;13153;52.316;21.166;2023-04-06T01:54:03;16.30;;;7.97;;
25207;SDS011;13153;52.316;21.166;2023-04-06T01:56:29;18.65;;;8.35;;
25207;SDS011;13153;52.316;21.166;2023-04-06T01:58:55;17.75;;;7.82;;
25207;SDS011;13153;52.316;21.166;2023-04-06T02:01:21;20.13;;;8.38;;
25207;SDS011;13153;52.316;21.166;2023-04-06T02:03:47;19.27;;;7.68;;
25207;SDS011;13153;52.316;21.166;2023-04-06T02:06:13;26.02;;;8.00;;
25207;SDS011;13153;52.316;21.166;2023-04-06T02:08:38;23.65;;;8.70;;
25207;SDS011;13153;52.316;21.166;2023-04-06T02:11:04;22.73;;;8.95;;
25207;SDS011;13153;52.316;21.166;2023-04-06T02:13:30;19.90;;;8.77;;
25207;SDS011;13153;52.316;21.166;2023-04-06T02:15:56;42.50;;;10.13;;
25207;SDS011;13153;52.316;21.166;2023-04-06T02:18:22;28.33;;;9.77;;
25207;SDS011;13153;52.316;21.166;2023-04-06T02:20:48;22.70;;;9.32;;
25207;SDS011;13153;52.316;21.166;2023-04-06T02:23:14;29.00;;;9.30;;
25207;SDS011;13153;52.316;21.166;2023-04-06T02:25:40;17.65;;;8.45;;
25207;SDS011;13153;52.316;21.166;2023-04-06T02:28:06;20.27;;;8.50;;
25207;SDS011;13153;52.316;21.166;2023-04-06T02:30:32;22.40;;;8.65;;
25207;SDS011;13153;52.316;21.166;2023-04-06T02:32:59;21.92;;;8.90;;
25207;SDS011;13153;52.316;21.166;2023-04-06T02:35:27;23.35;;;8.82;;
25207;SDS011;13153;52.316;21.166;2023-04-06T02:37:54;17.95;;;8.57;;
25207;SDS011;13153;52.316;21.166;2023-04-06T02:40:19;19.73;;;8.40;;
25207;SDS011;13153;52.316;21.166;2023-04-06T02:42:45;17.75;;;8.30;;
25207;SDS011;13153;52.316;21.166;2023-04-06T02:45:11;21.27;;;9.48;;
25207;SDS011;13153;52.316;21.166;2023-04-06T02:47:37;21.00;;;8.73;;
25207;SDS011;13153;52.316;21.166;2023-04-06T02:50:03;18.27;;;8.20;;
25207;SDS011;13153;52.316;21.166;2023-04-06T02:52:30;18.70;;;8.65;;
25207;SDS011;13153;52.316;21.166;2023-04-06T02:54:55;20.70;;;8.75;;
25207;SDS011;13153;52.316;21.166;2023-04-06T02:57:21;21.13;;;9.18;;
25207;SDS011;13153;52.316;21.166;2023-04-06T02:59:47;21.17;;;8.82;;
25207;SDS011;13153;52.316;21.166;2023-04-06T03:02:12;21.05;;;8.70;;
25207;SDS011;13153;52.316;21.166;2023-04-06T03:04:38;23.52;;;9.70;;
25207;SDS011;13153;52.316;21.166;2023-04-06T03:07:04;21.52;;;8.80;;
25207;SDS011;13153;52.316;21.166;2023-04-06T03:09:30;21.63;;;8.70;;
25207;SDS011;13153;52.316;21.166;2023-04-06T03:11:55;21.83;;;9.20;;
25207;SDS011;13153;52.316;21.166;2023-04-06T03:14:22;20.80;;;9.07;;
25207;SDS011;13153;52.316;21.166;2023-04-06T03:16:48;19.75;;;9.15;;
25207;SDS011;13153;52.316;21.166;2023-04-06T03:19:14;23.08;;;10.18;;
25207;SDS011;13153;52.316;21.166;2023-04-06T03:21:40;24.08;;;10.02;;
25207;SDS011;13153;52.316;21.166;2023-04-06T03:24:06;22.42;;;10.93;;
25207;SDS011;13153;52.316;21.166;2023-04-06T03:26:32;24.70;;;10.55;;
25207;SDS011;13153;52.316;21.166;2023-04-06T03:28:58;29.20;;;10.55;;
25207;SDS011;13153;52.316;21.166;2023-04-06T03:31:25;24.63;;;9.70;;
25207;SDS011;13153;52.316;21.166;2023-04-06T03:33:51;29.33;;;10.65;;
25207;SDS011;13153;52.316;21.166;2023-04-06T03:36:17;29.60;;;12.13;;
25207;SDS011;13153;52.316;21.166;2023-04-06T03:38:43;30.65;;;11.38;;
25207;SDS011;13153;52.316;21.166;2023-04-06T03:41:09;37.30;;;11.68;;
25207;SDS011;13153;52.316;21.166;2023-04-06T03:43:35;24.10;;;10.60;;
25207;SDS011;13153;52.316;21.166;2023-04-06T03:46:01;28.02;;;10.98;;
25207;SDS011;13153;52.316;21.166;2023-04-06T03:48:27;26.02;;;10.63;;
25207;SDS011;13153;52.316;21.166;2023-04-06T03:50:52;33.78;;;11.90;;
25207;SDS011;13153;52.316;21.166;2023-04-06T03:53:18;43.20;;;11.93;;
25207;SDS011;13153;52.316;21.166;2023-04-06T03:55:44;36.17;;;11.77;;
25207;SDS011;13153;52.316;21.166;2023-04-06T03:58:10;26.88;;;11.13;;
25207;SDS011;13153;52.316;21.166;2023-04-06T04:00:35;40.70;;;11.15;;
25207;SDS011;13153;52.316;21.166;2023-04-06T04:03:01;33.88;;;10.95;;
25207;SDS011;13153;52.316;21.166;2023-04-06T04:05:27;29.38;;;11.88;;
25207;SDS011;13153;52.316;21.166;2023-04-06T04:07:53;29.27;;;11.88;;
25207;SDS011;13153;52.316;21.166;2023-04-06T04:10:20;35.28;;;12.48;;
25207;SDS011;13153;52.316;21.166;2023-04-06T04:12:46;30.67;;;12.05;;
25207;SDS011;13153;52.316;21.166;2023-04-06T04:15:11;29.90;;;11.50;;
25207;SDS011;13153;52.316;21.166;2023-04-06T04:17:37;24.77;;;11.00;;
25207;SDS011;13153;52.316;21.166;2023-04-06T04:20:03;33.17;;;11.35;;
25207;SDS011;13153;52.316;21.166;2023-04-06T04:22:29;29.88;;;11.15;;
25207;SDS011;13153;52.316;21.166;2023-04-06T04:24:55;67.88;;;30.00;;
25207;SDS011;13153;52.316;21.166;2023-04-06T04:27:21;33.05;;;13.18;;
25207;SDS011;13153;52.316;21.166;2023-04-06T04:29:47;31.77;;;11.40;;
25207;SDS011;13153;52.316;21.166;2023-04-06T04:32:13;42.75;;;11.70;;
25207;SDS011;13153;52.316;21.166;2023-04-06T04:34:40;36.33;;;10.55;;
25207;SDS011;13153;52.316;21.166;2023-04-06T04:37:06;30.60;;;10.90;;
25207;SDS011;13153;52.316;21.166;2023-04-06T04:39:32;35.30;;;13.07;;
25207;SDS011;13153;52.316;21.166;2023-04-06T04:41:57;40.60;;;15.93;;
25207;SDS011;13153;52.316;21.166;2023-04-06T04:44:23;42.25;;;16.05;;
25207;SDS011;13153;52.316;21.166;2023-04-06T04:46:49;39.78;;;13.18;;
25207;SDS011;13153;52.316;21.166;2023-04-06T04:49:15;37.22;;;13.15;;
25207;SDS011;13153;52.316;21.166;2023-04-06T04:51:40;29.88;;;13.30;;
25207;SDS011;13153;52.316;21.166;2023-04-06T04:54:06;28.90;;;11.85;;
25207;SDS011;13153;52.316;21.166;2023-04-06T04:56:32;30.67;;;11.35;;
25207;SDS011;13153;52.316;21.166;2023-04-06T04:58:58;22.17;;;9.65;;
25207;SDS011;13153;52.316;21.166;2023-04-06T05:01:24;26.02;;;12.93;;
25207;SDS011;13153;52.316;21.166;2023-04-06T05:03:50;22.48;;;11.95;;
25207;SDS011;13153;52.316;21.166;2023-04-06T05:06:15;25.95;;;10.05;;
25207;SDS011;13153;52.316;21.166;2023-04-06T05:08:43;22.88;;;10.20;;
25207;SDS011;13153;52.316;21.166;2023-04-06T05:11:09;21.20;;;9.57;;
25207;SDS011;13153;52.316;21.166;2023-04-06T05:13:35;23.73;;;9.85;;
25207;SDS011;13153;52.316;21.166;2023-04-06T05:16:00;21.58;;;8.77;;
25207;SDS011;13153;52.316;21.166;2023-04-06T05:18:26;20.05;;;8.68;;
25207;SDS011;13153;52.316;21.166;2023-04-06T05:20:52;25.38;;;8.95;;
25207;SDS011;13153;52.316;21.166;2023-04-06T05:23:18;17.92;;;8.57;;
25207;SDS011;13153;52.316;21.166;2023-04-06T05:25:44;19.75;;;8.35;;
25207;SDS011;13153;52.316;21.166;2023-04-06T05:28:10;22.80;;;9.23;;
25207;SDS011;13153;52.316;21.166;2023-04-06T05:30:39;17.23;;;8.32;;
25207;SDS011;13153;52.316;21.166;2023-04-06T05:33:05;22.50;;;8.18;;
25207;SDS011;13153;52.316;21.166;2023-04-06T05:35:31;22.10;;;8.63;;
25207;SDS011;13153;52.316;21.166;2023-04-06T05:37:57;23.58;;;8.98;;
25207;SDS011;13153;52.316;21.166;2023-04-06T05:40:22;14.30;;;7.80;;
25207;SDS011;13153;52.316;21.166;2023-04-06T05:42:48;20.20;;;7.93;;
25207;SDS011;13153;52.316;21.166;2023-04-06T05:45:14;19.83;;;8.15;;
25207;SDS011;13153;52.316;21.166;2023-04-06T05:47:44;17.27;;;8.10;;
25207;SDS011;13153;52.316;21.166;2023-04-06T05:50:10;17.45;;;7.50;;
25207;SDS011;13153;52.316;21.166;2023-04-06T05:52:37;20.10;;;7.20;;
25207;SDS011;13153;52.316;21.166;2023-04-06T05:55:03;26.05;;;9.35;;
25207;SDS011;13153;52.316;21.166;2023-04-06T05:57:30;20.08;;;7.13;;
25207;SDS011;13153;52.316;21.166;2023-04-06T05:59:56;19.70;;;7.47;;
25207;SDS011;13153;52.316;21.166;2023-04-06T06:02:21;21.73;;;7.15;;
25207;SDS011;13153;52.316;21.166;2023-04-06T06:04:47;17.98;;;6.80;;
25207;SDS011;13153;52.316;21.166;2023-04-06T06:07:14;18.63;;;6.63;;
25207;SDS011;13153;52.316;21.166;2023-04-06T06:09:40;19.00;;;6.28;;
25207;SDS011;13153;52.316;21.166;2023-04-06T06:12:06;14.93;;;5.60;;
25207;SDS011;13153;52.316;21.166;2023-04-06T06:14:32;20.30;;;6.68;;
25207;SDS011;13153;52.316;21.166;2023-04-06T06:16:58;15.27;;;6.22;;
25207;SDS011;13153;52.316;21.166;2023-04-06T06:19:25;19.13;;;7.07;;
25207;SDS011;13153;52.316;21.166;2023-04-06T06:21:51;20.27;;;6.40;;
25207;SDS011;13153;52.316;21.166;2023-04-06T06:24:17;16.88;;;5.78;;
25207;SDS011;13153;52.316;21.166;2023-04-06T06:26:42;17.88;;;6.45;;
25207;SDS011;13153;52.316;21.166;2023-04-06T06:29:08;12.77;;;5.80;;
25207;SDS011;13153;52.316;21.166;2023-04-06T06:31:34;16.35;;;6.47;;
25207;SDS011;13153;52.316;21.166;2023-04-06T06:34:01;15.15;;;5.65;;
25207;SDS011;13153;52.316;21.166;2023-04-06T06:36:27;15.73;;;5.35;;
25207;SDS011;13153;52.316;21.166;2023-04-06T06:38:55;13.63;;;5.82;;
25207;SDS011;13153;52.316;21.166;2023-04-06T06:41:21;14.13;;;5.88;;
25207;SDS011;13153;52.316;21.166;2023-04-06T06:43:47;20.38;;;5.63;;
25207;SDS011;13153;52.316;21.166;2023-04-06T06:46:13;17.63;;;5.57;;
25207;SDS011;13153;52.316;21.166;2023-04-06T06:48:39;13.48;;;5.70;;
25207;SDS011;13153;52.316;21.166;2023-04-06T06:51:05;17.75;;;5.95;;
25207;SDS011;13153;52.316;21.166;2023-04-06T06:53:31;13.50;;;5.60;;
25207;SDS011;13153;52.316;21.166;2023-04-06T06:55:57;19.23;;;5.72;;
25207;SDS011;13153;52.316;21.166;2023-04-06T06:58:22;12.63;;;5.20;;
25207;SDS011;13153;52.316;21.166;2023-04-06T07:00:48;15.23;;;4.97;;
25207;SDS011;13153;52.316;21.166;2023-04-06T07:03:14;11.07;;;4.82;;
25207;SDS011;13153;52.316;21.166;2023-04-06T07:05:46;15.35;;;5.38;;
25207;SDS011;13153;52.316;21.166;2023-04-06T07:08:18;16.70;;;4.93;;
25207;SDS011;13153;52.316;21.166;2023-04-06T07:10:45;9.20;;;4.50;;
25207;SDS011;13153;52.316;21.166;2023-04-06T07:13:11;12.27;;;5.03;;
25207;SDS011;13153;52.316;21.166;2023-04-06T07:15:37;19.20;;;5.43;;
25207;SDS011;13153;52.316;21.166;2023-04-06T07:18:03;12.98;;;4.82;;
25207;SDS011;13153;52.316;21.166;2023-04-06T07:20:28;15.38;;;4.97;;
25207;SDS011;13153;52.316;21.166;2023-04-06T07:22:54;9.90;;;4.70;;
25207;SDS011;13153;52.316;21.166;2023-04-06T07:25:20;12.38;;;4.30;;
25207;SDS011;13153;52.316;21.166;2023-04-06T07:27:46;12.48;;;4.60;;
25207;SDS011;13153;52.316;21.166;2023-04-06T07:30:13;13.68;;;5.85;;
25207;SDS011;13153;52.316;21.166;2023-04-06T07:32:39;12.30;;;5.20;;
25207;SDS011;13153;52.316;21.166;2023-04-06T07:35:04;12.98;;;4.82;;
25207;SDS011;13153;52.316;21.166;2023-04-06T07:37:30;12.45;;;5.28;;
25207;SDS011;13153;52.316;21.166;2023-04-06T07:39:56;11.93;;;5.45;;
25207;SDS011;13153;52.316;21.166;2023-04-06T07:42:22;12.85;;;4.35;;
25207;SDS011;13153;52.316;21.166;2023-04-06T07:44:48;12.77;;;4.55;;
25207;SDS011;13153;52.316;21.166;2023-04-06T07:47:14;20.63;;;4.85;;
25207;SDS011;13153;52.316;21.166;2023-04-06T07:49:40;12.65;;;4.18;;
25207;SDS011;13153;52.316;21.166;2023-04-06T07:52:05;18.33;;;4.45;;
25207;SDS011;13153;52.316;21.166;2023-04-06T07:54:31;10.43;;;4.70;;
25207;SDS011;13153;52.316;21.166;2023-04-06T07:56:57;10.20;;;4.43;;
25207;SDS011;13153;52.316;21.166;2023-04-06T07:59:23;17.15;;;4.53;;
25207;SDS011;13153;52.316;21.166;2023-04-06T08:01:49;15.90;;;4.38;;
25207;SDS011;13153;52.316;21.166;2023-04-06T08:04:15;10.23;;;4.55;;
25207;SDS011;13153;52.316;21.166;2023-04-06T08:06:40;12.48;;;4.65;;
25207;SDS011;13153;52.316;21.166;2023-04-06T08:09:06;7.88;;;4.38;;
25207;SDS011;13153;52.316;21.166;2023-04-06T08:11:32;8.23;;;4.60;;
25207;SDS011;13153;52.316;21.166;2023-04-06T08:13:58;9.35;;;4.38;;
25207;SDS011;13153;52.316;21.166;2023-04-06T08:16:24;8.88;;;4.40;;
25207;SDS011;13153;52.316;21.166;2023-04-06T08:18:50;11.57;;;4.78;;
25207;SDS011;13153;52.316;21.166;2023-04-06T08:21:15;8.32;;;4.63;;
25207;SDS011;13153;52.316;21.166;2023-04-06T08:23:41;9.75;;;4.80;;
25207;SDS011;13153;52.316;21.166;2023-04-06T08:26:07;9.73;;;4.50;;
25207;SDS011;13153;52.316;21.166;2023-04-06T08:28:33;8.35;;;4.70;;
25207;SDS011;13153;52.316;21.166;2023-04-06T08:31:02;9.70;;;5.28;;
25207;SDS011;13153;52.316;21.166;2023-04-06T08:33:32;9.48;;;5.25;;
25207;SDS011;13153;52.316;21.166;2023-04-06T08:36:10;11.85;;;5.93;;
25207;SDS011;13153;52.316;21.166;2023-04-06T08:38:38;9.45;;;5.43;;
25207;SDS011;13153;52.316;21.166;2023-04-06T08:41:07;9.45;;;4.85;;
25207;SDS011;13153;52.316;21.166;2023-04-06T08:43:35;12.77;;;5.65;;
25207;SDS011;13153;52.316;21.166;2023-04-06T08:46:08;12.07;;;5.85;;
25207;SDS011;13153;52.316;21.166;2023-04-06T08:48:36;9.98;;;5.43;;
25207;SDS011;13153;52.316;21.166;2023-04-06T08:51:04;8.88;;;4.97;;
25207;SDS011;13153;52.316;21.166;2023-04-06T08:53:30;13.00;;;4.97;;
25207;SDS011;13153;52.316;21.166;2023-04-06T08:55:56;10.75;;;4.90;;
25207;SDS011;13153;52.316;21.166;2023-04-06T08:58:24;10.60;;;4.57;;
25207;SDS011;13153;52.316;21.166;2023-04-06T09:00:53;8.20;;;4.50;;
25207;SDS011;13153;52.316;21.166;2023-04-06T09:03:20;11.27;;;4.50;;
25207;SDS011;13153;52.316;21.166;2023-04-06T09:05:47;7.50;;;4.25;;
25207;SDS011;13153;52.316;21.166;2023-04-06T09:08:13;8.75;;;4.53;;
25207;SDS011;13153;52.316;21.166;2023-04-06T09:10:42;7.00;;;4.40;;
25207;SDS011;13153;52.316;21.166;2023-04-06T09:13:08;7.80;;;4.38;;
25207;SDS011;13153;52.316;21.166;2023-04-06T09:15:35;9.75;;;4.05;;
25207;SDS011;13153;52.316;21.166;2023-04-06T09:18:03;7.28;;;3.70;;
25207;SDS011;13153;52.316;21.166;2023-04-06T09:20:29;7.07;;;4.03;;
25207;SDS011;13153;52.316;21.166;2023-04-06T09:22:55;10.20;;;4.60;;
25207;SDS011;13153;52.316;21.166;2023-04-06T09:25:21;9.27;;;4.50;;
25207;SDS011;13153;52.316;21.166;2023-04-06T09:28:03;7.78;;;5.07;;
25207;SDS011;13153;52.316;21.166;2023-04-06T09:30:31;11.88;;;5.15;;
25207;SDS011;13153;52.316;21.166;2023-04-06T09:32:57;12.45;;;6.03;;
25207;SDS011;13153;52.316;21.166;2023-04-06T09:35:24;10.75;;;5.72;;
25207;SDS011;13153;52.316;21.166;2023-04-06T09:37:52;11.55;;;5.20;;
25207;SDS011;13153;52.316;21.166;2023-04-06T09:40:18;11.02;;;5.15;;
25207;SDS011;13153;52.316;21.166;2023-04-06T09:42:46;9.35;;;5.57;;
25207;SDS011;13153;52.316;21.166;2023-04-06T09:45:19;9.57;;;6.45;;
25207;SDS011;13153;52.316;21.166;2023-04-06T09:47:45;10.77;;;4.95;;
25207;SDS011;13153;52.316;21.166;2023-04-06T09:50:12;10.15;;;4.75;;
25207;SDS011;13153;52.316;21.166;2023-04-06T09:52:47;11.48;;;5.88;;
25207;SDS011;13153;52.316;21.166;2023-04-06T09:55:17;7.35;;;4.70;;
25207;SDS011;13153;52.316;21.166;2023-04-06T09:58:06;8.05;;;4.68;;
25207;SDS011;13153;52.316;21.166;2023-04-06T10:00:47;8.90;;;4.43;;
25207;SDS011;13153;52.316;21.166;2023-04-06T10:06:35;9.95;;;4.95;;
25207;SDS011;13153;52.316;21.166;2023-04-06T10:09:02;6.38;;;4.35;;
25207;SDS011;13153;52.316;21.166;2023-04-06T10:11:33;8.00;;;4.75;;
25207;SDS011;13153;52.316;21.166;2023-04-06T10:13:59;11.45;;;5.03;;
25207;SDS011;13153;52.316;21.166;2023-04-06T10:16:26;8.90;;;5.10;;
25207;SDS011;13153;52.316;21.166;2023-04-06T10:18:56;9.70;;;5.15;;
25207;SDS011;13153;52.316;21.166;2023-04-06T10:21:30;10.57;;;5.35;;
25207;SDS011;13153;52.316;21.166;2023-04-06T10:23:59;12.05;;;5.00;;
25207;SDS011;13153;52.316;21.166;2023-04-06T10:26:27;10.43;;;5.68;;
25207;SDS011;13153;52.316;21.166;2023-04-06T10:28:53;8.75;;;5.45;;
25207;SDS011;13153;52.316;21.166;2023-04-06T10:31:26;10.38;;;5.53;;
25207;SDS011;13153;52.316;21.166;2023-04-06T10:33:56;10.70;;;5.97;;
25207;SDS011;13153;52.316;21.166;2023-04-06T10:36:26;10.52;;;5.90;;
25207;SDS011;13153;52.316;21.166;2023-04-06T10:39:01;10.10;;;5.43;;
25207;SDS011;13153;52.316;21.166;2023-04-06T10:42:05;11.55;;;6.22;;
25207;SDS011;13153;52.316;21.166;2023-04-06T10:44:31;7.72;;;5.18;;
25207;SDS011;13153;52.316;21.166;2023-04-06T10:47:15;9.00;;;5.57;;
25207;SDS011;13153;52.316;21.166;2023-04-06T10:49:45;10.75;;;6.30;;
25207;SDS011;13153;52.316;21.166;2023-04-06T10:52:11;10.55;;;6.07;;
25207;SDS011;13153;52.316;21.166;2023-04-06T10:54:40;14.27;;;6.47;;
25207;SDS011;13153;52.316;21.166;2023-04-06T10:57:08;10.50;;;5.97;;
25207;SDS011;13153;52.316;21.166;2023-04-06T10:59:35;13.05;;;6.13;;
25207;SDS011;13153;52.316;21.166;2023-04-06T11:02:00;11.73;;;5.80;;
25207;SDS011;13153;52.316;21.166;2023-04-06T11:04:26;12.20;;;6.35;;
25207;SDS011;13153;52.316;21.166;2023-04-06T11:06:52;11.95;;;6.63;;
25207;SDS011;13153;52.316;21.166;2023-04-06T11:11:52;14.57;;;7.40;;
25207;SDS011;13153;52.316;21.166;2023-04-06T11:14:19;14.75;;;6.85;;
25207;SDS011;13153;52.316;21.166;2023-04-06T11:16:46;9.85;;;5.65;;
25207;SDS011;13153;52.316;21.166;2023-04-06T11:19:16;12.60;;;6.07;;
25207;SDS011;13153;52.316;21.166;2023-04-06T11:21:43;13.85;;;7.55;;
25207;SDS011;13153;52.316;21.166;2023-04-06T11:24:15;12.57;;;6.60;;
25207;SDS011;13153;52.316;21.166;2023-04-06T11:29:11;9.43;;;5.38;;
25207;SDS011;13153;52.316;21.166;2023-04-06T11:31:39;14.88;;;5.85;;
25207;SDS011;13153;52.316;21.166;2023-04-06T11:36:46;8.45;;;5.50;;
25207;SDS011;13153;52.316;21.166;2023-04-06T11:39:27;12.02;;;5.47;;
25207;SDS011;13153;52.316;21.166;2023-04-06T11:41:56;11.13;;;5.90;;
25207;SDS011;13153;52.316;21.166;2023-04-06T11:44:31;12.40;;;6.63;;
25207;SDS011;13153;52.316;21.166;2023-04-06T11:47:00;12.30;;;6.00;;
25207;SDS011;13153;52.316;21.166;2023-04-06T11:49:29;11.45;;;6.25;;
25207;SDS011;13153;52.316;21.166;2023-04-06T11:51:56;10.30;;;5.85;;
25207;SDS011;13153;52.316;21.166;2023-04-06T11:54:33;10.15;;;5.60;;
25207;SDS011;13153;52.316;21.166;2023-04-06T11:57:03;15.02;;;6.88;;
25207;SDS011;13153;52.316;21.166;2023-04-06T11:59:30;12.57;;;6.68;;
25207;SDS011;13153;52.316;21.166;2023-04-06T12:01:57;12.35;;;6.18;;
25207;SDS011;13153;52.316;21.166;2023-04-06T12:04:23;9.93;;;6.07;;
25207;SDS011;13153;52.316;21.166;2023-04-06T12:06:49;12.50;;;6.38;;
25207;SDS011;13153;52.316;21.166;2023-04-06T12:09:16;12.45;;;5.88;;
25207;SDS011;13153;52.316;21.166;2023-04-06T12:11:43;11.73;;;6.20;;
25207;SDS011;13153;52.316;21.166;2023-04-06T12:14:09;13.07;;;6.72;;
25207;SDS011;13153;52.316;21.166;2023-04-06T12:16:36;11.05;;;6.18;;
25207;SDS011;13153;52.316;21.166;2023-04-06T12:19:02;12.05;;;6.13;;
25207;SDS011;13153;52.316;21.166;2023-04-06T12:21:28;8.60;;;5.47;;
25207;SDS011;13153;52.316;21.166;2023-04-06T12:23:56;11.70;;;6.15;;
25207;SDS011;13153;52.316;21.166;2023-04-06T12:26:23;14.60;;;6.85;;
25207;SDS011;13153;52.316;21.166;2023-04-06T12:28:49;14.20;;;6.10;;
25207;SDS011;13153;52.316;21.166;2023-04-06T12:31:16;8.60;;;5.15;;
25207;SDS011;13153;52.316;21.166;2023-04-06T12:33:46;13.35;;;6.25;;
25207;SDS011;13153;52.316;21.166;2023-04-06T12:36:14;9.43;;;5.30;;
25207;SDS011;13153;52.316;21.166;2023-04-06T12:38:49;13.38;;;6.20;;
25207;SDS011;13153;52.316;21.166;2023-04-06T12:41:18;12.00;;;6.22;;
25207;SDS011;13153;52.316;21.166;2023-04-06T12:43:44;13.13;;;5.90;;
25207;SDS011;13153;52.316;21.166;2023-04-06T12:46:11;10.63;;;5.88;;
25207;SDS011;13153;52.316;21.166;2023-04-06T12:48:37;9.32;;;5.88;;
25207;SDS011;13153;52.316;21.166;2023-04-06T12:51:04;9.43;;;5.57;;
25207;SDS011;13153;52.316;21.166;2023-04-06T12:53:31;24.70;;;6.57;;
25207;SDS011;13153;52.316;21.166;2023-04-06T12:56:01;13.57;;;5.93;;
25207;SDS011;13153;52.316;21.166;2023-04-06T12:58:36;34.55;;;8.18;;
25207;SDS011;13153;52.316;21.166;2023-04-06T13:01:05;19.05;;;6.80;;
25207;SDS011;13153;52.316;21.166;2023-04-06T13:03:32;13.57;;;5.97;;
25207;SDS011;13153;52.316;21.166;2023-04-06T13:05:58;10.35;;;5.50;;
25207;SDS011;13153;52.316;21.166;2023-04-06T13:08:26;16.50;;;6.95;;
25207;SDS011;13153;52.316;21.166;2023-04-06T13:10:52;11.85;;;5.63;;
25207;SDS011;13153;52.316;21.166;2023-04-06T13:13:22;17.33;;;7.13;;
25207;SDS011;13153;52.316;21.166;2023-04-06T13:15:53;11.10;;;6.55;;
25207;SDS011;13153;52.316;21.166;2023-04-06T13:18:25;10.57;;;6.07;;
25207;SDS011;13153;52.316;21.166;2023-04-06T13:20:52;11.88;;;5.45;;
25207;SDS011;13153;52.316;21.166;2023-04-06T13:23:17;10.95;;;5.35;;
25207;SDS011;13153;52.316;21.166;2023-04-06T13:25:43;17.38;;;7.18;;
25207;SDS011;13153;52.316;21.166;2023-04-06T13:28:09;15.10;;;6.82;;
25207;SDS011;13153;52.316;21.166;2023-04-06T13:30:35;13.77;;;6.28;;
25207;SDS011;13153;52.316;21.166;2023-04-06T13:33:01;10.43;;;6.00;;
25207;SDS011;13153;52.316;21.166;2023-04-06T13:35:27;13.05;;;6.28;;
25207;SDS011;13153;52.316;21.166;2023-04-06T13:37:53;9.98;;;5.90;;
25207;SDS011;13153;52.316;21.166;2023-04-06T13:40:19;12.57;;;5.93;;
25207;SDS011;13153;52.316;21.166;2023-04-06T13:42:46;9.18;;;5.82;;
25207;SDS011;13153;52.316;21.166;2023-04-06T13:45:12;10.75;;;5.85;;
25207;SDS011;13153;52.316;21.166;2023-04-06T13:47:38;17.95;;;8.60;;
25207;SDS011;13153;52.316;21.166;2023-04-06T13:50:04;17.08;;;8.82;;
25207;SDS011;13153;52.316;21.166;2023-04-06T13:52:31;13.50;;;6.70;;
25207;SDS011;13153;52.316;21.166;2023-04-06T13:54:57;11.73;;;6.28;;
25207;SDS011;13153;52.316;21.166;2023-04-06T13:57:22;14.98;;;6.70;;
25207;SDS011;13153;52.316;21.166;2023-04-06T13:59:48;11.85;;;6.57;;
25207;SDS011;13153;52.316;21.166;2023-04-06T14:02:16;9.23;;;6.20;;
25207;SDS011;13153;52.316;21.166;2023-04-06T14:04:43;12.82;;;6.63;;
25207;SDS011;13153;52.316;21.166;2023-04-06T14:07:09;14.32;;;6.88;;
25207;SDS011;13153;52.316;21.166;2023-04-06T14:09:35;14.48;;;8.10;;
25207;SDS011;13153;52.316;21.166;2023-04-06T14:12:01;16.80;;;8.38;;
25207;SDS011;13153;52.316;21.166;2023-04-06T14:14:27;14.88;;;7.80;;
25207;SDS011;13153;52.316;21.166;2023-04-06T14:16:53;16.23;;;9.38;;
25207;SDS011;13153;52.316;21.166;2023-04-06T14:19:19;20.40;;;10.23;;
25207;SDS011;13153;52.316;21.166;2023-04-06T14:21:46;20.85;;;11.07;;
25207;SDS011;13153;52.316;21.166;2023-04-06T14:24:13;11.38;;;6.97;;
25207;SDS011;13153;52.316;21.166;2023-04-06T14:26:40;12.82;;;7.20;;
25207;SDS011;13153;52.316;21.166;2023-04-06T14:29:07;13.55;;;6.68;;
25207;SDS011;13153;52.316;21.166;2023-04-06T14:31:34;13.27;;;7.05;;